Roanoke Regional Woodrum Field
KROA : now visible

Airfield :











YOU CAN JOIN US ON...

 
LOGIN :

Register | Disclaimer

   EN    FR    IT 

 









Legend :    VFR   Marginal VFR   IFR   Intensive IFR   Very Intensive IFR
Visi :
Ceiling :
>= 8 km
>= 3000ft
5 to 8 km
1000 to 3000 ft
1500m to 5 km
500 to 1000 ft
800 to 1500m
200 to 500 ft
< 800m
< 200 ft
Symbols :   Thunderstorms  Fog  Heavy snow  Heavy precipitations  Wind > 20 kt






- Airport Elevation : 1175 ft
- IATA code : ROA


KROA - Roanoke Regional Woodrum Field

CURRENT METAR :
  • 162354Z 17009KT 10SM BKN043 BKN055 27/17 A3018 RMK AO2 SLP209 T02670172 10300 20267 53001

EXPIRED METARs :
  • 162254Z 15010KT 10SM BKN047 27/18 A3017 RMK AO2 SLP206 T02720178
  • 162154Z 16010KT 10SM BKN045 BKN049 28/18 A3017 RMK AO2 SLP204 T02830178
  • 162054Z 14010KT 10SM OVC046 29/18 A3018 RMK AO2 SLP208 T02940178 56014
  • 161954Z 14010G16KT 10SM BKN047 OVC055 28/17 A3019 RMK AO2 SLP211 T02830167

TAF KROA
Valid from the 17 at 00:00 until the 18 at 00:00 UTC


162328Z 1700/1724 15010KT P6SM BKN045
FM170200 VRB04KT P6SM BKN045
KZDC FIR / North America



MET'MAP, your aeronautical weather chart ! - Copyright ORBIFLY December 2007 - Disclaimer

ORBIFLY MET'MAP TEAM :

Programming & Development : Alexandra Zaïnal
Original concept : Baudouin d'Aumeries
Technical & hardware support : Manuel Goepfert
Assistance : Marc-Olivier Méhu




SOURCES & CREDITS :

   NOAA       Earth
Advisory